Wabash, Nebraska
Current Conditions -  °F | °C
As of 11:55 PM on Saturday 22 Nov 2014 (Local Time) from KPMV Reporting Station
Overcast Overcast  
Wind Chill: 53°   Ceiling: 600
Heat Index: 53°   Visibility: 7mi
Dew Point: 51°   Wind: 18mph
Humidity: 93%   Direction: 170°S
Pressure: 29.57"   Gusts: NA
Location:  40.9139°N, 96.2935°W
Report Text: KPMV 230555Z AUTO 17016KT 7SM BKN006 BKN012 OVC019 12/11 A2957 RMK AO2 T01180107 10132 20118 401470015
Loading
Personal Weather Stations






























Interactive Weather Map New forecast layout! Learn more

10-Day Weather Forecast

Advertisements
Track Severe Weather on mobile